sensor_id;sensor_type;location;lat;lon;timestamp;pressure;altitude;pressure_sealevel;temperature;humidity
43119;BME280;28729;49.838;8.650;2024-02-16T00:01:30;99553.19;;;12.61;100.00
43119;BME280;28729;49.838;8.650;2024-02-16T00:05:32;99551.78;;;12.58;100.00
43119;BME280;28729;49.838;8.650;2024-02-16T00:09:34;99538.53;;;12.60;100.00
43119;BME280;28729;49.838;8.650;2024-02-16T00:13:36;99532.47;;;12.63;100.00
43119;BME280;28729;49.838;8.650;2024-02-16T00:17:38;99542.41;;;12.59;100.00
43119;BME280;28729;49.838;8.650;2024-02-16T00:21:40;99528.31;;;12.56;100.00
43119;BME280;28729;49.838;8.650;2024-02-16T00:25:44;99524.41;;;12.51;100.00
43119;BME280;28729;49.838;8.650;2024-02-16T00:29:45;99525.50;;;12.50;100.00
43119;BME280;28729;49.838;8.650;2024-02-16T00:33:50;99517.22;;;12.50;100.00
43119;BME280;28729;49.838;8.650;2024-02-16T00:37:52;99511.13;;;12.48;100.00
43119;BME280;28729;49.838;8.650;2024-02-16T00:41:55;99505.34;;;12.55;100.00
43119;BME280;28729;49.838;8.650;2024-02-16T00:45:56;99496.50;;;12.58;100.00
43119;BME280;28729;49.838;8.650;2024-02-16T00:49:58;99496.53;;;12.63;100.00
43119;BME280;28729;49.838;8.650;2024-02-16T00:54:00;99499.06;;;12.75;100.00
43119;BME280;28729;49.838;8.650;2024-02-16T00:58:02;99501.59;;;12.87;100.00
43119;BME280;28729;49.838;8.650;2024-02-16T01:02:04;99498.28;;;12.95;99.77
43119;BME280;28729;49.838;8.650;2024-02-16T01:06:06;99498.00;;;12.96;99.74
43119;BME280;28729;49.838;8.650;2024-02-16T01:10:11;99507.72;;;12.94;99.53
43119;BME280;28729;49.838;8.650;2024-02-16T01:14:14;99500.22;;;12.99;99.64
43119;BME280;28729;49.838;8.650;2024-02-16T01:18:17;99514.91;;;13.00;99.85
43119;BME280;28729;49.838;8.650;2024-02-16T01:22:19;99503.28;;;12.98;99.54
43119;BME280;28729;49.838;8.650;2024-02-16T01:26:21;99512.69;;;12.97;99.70
43119;BME280;28729;49.838;8.650;2024-02-16T01:30:24;99514.31;;;12.93;100.00
43119;BME280;28729;49.838;8.650;2024-02-16T01:34:26;99509.06;;;12.86;100.00
43119;BME280;28729;49.838;8.650;2024-02-16T01:38:28;99517.91;;;12.83;100.00
43119;BME280;28729;49.838;8.650;2024-02-16T01:42:30;99516.47;;;12.75;100.00
43119;BME280;28729;49.838;8.650;2024-02-16T01:46:33;99525.28;;;12.62;100.00
43119;BME280;28729;49.838;8.650;2024-02-16T01:50:35;99536.81;;;12.44;100.00
43119;BME280;28729;49.838;8.650;2024-02-16T01:54:38;99532.34;;;12.32;100.00
43119;BME280;28729;49.838;8.650;2024-02-16T01:58:40;99532.84;;;12.24;100.00
43119;BME280;28729;49.838;8.650;2024-02-16T02:02:44;99517.06;;;12.20;100.00
43119;BME280;28729;49.838;8.650;2024-02-16T02:06:47;99514.03;;;12.21;100.00
43119;BME280;28729;49.838;8.650;2024-02-16T02:10:49;99519.06;;;12.29;100.00
43119;BME280;28729;49.838;8.650;2024-02-16T02:14:51;99512.50;;;12.41;100.00
43119;BME280;28729;49.838;8.650;2024-02-16T02:18:53;99506.16;;;12.50;100.00
43119;BME280;28729;49.838;8.650;2024-02-16T02:22:56;99505.13;;;12.62;100.00
43119;BME280;28729;49.838;8.650;2024-02-16T02:26:58;99514.25;;;12.67;100.00
43119;BME280;28729;49.838;8.650;2024-02-16T02:30:59;99509.00;;;12.66;100.00
43119;BME280;28729;49.838;8.650;2024-02-16T02:35:02;99503.72;;;12.59;100.00
43119;BME280;28729;49.838;8.650;2024-02-16T02:39:05;99495.41;;;12.54;100.00
43119;BME280;28729;49.838;8.650;2024-02-16T02:43:07;99497.59;;;12.47;100.00
43119;BME280;28729;49.838;8.650;2024-02-16T02:47:10;99494.22;;;12.40;100.00
43119;BME280;28729;49.838;8.650;2024-02-16T02:51:12;99484.78;;;12.30;100.00
43119;BME280;28729;49.838;8.650;2024-02-16T02:55:14;99486.41;;;12.21;100.00
43119;BME280;28729;49.838;8.650;2024-02-16T02:59:16;99489.41;;;12.15;100.00
43119;BME280;28729;49.838;8.650;2024-02-16T03:03:18;99494.66;;;12.11;100.00
43119;BME280;28729;49.838;8.650;2024-02-16T03:07:19;99492.44;;;12.08;100.00
43119;BME280;28729;49.838;8.650;2024-02-16T03:11:21;99501.25;;;12.05;100.00
43119;BME280;28729;49.838;8.650;2024-02-16T03:15:24;99501.47;;;11.98;100.00
43119;BME280;28729;49.838;8.650;2024-02-16T03:19:26;99491.53;;;11.97;100.00
43119;BME280;28729;49.838;8.650;2024-02-16T03:23:29;99491.28;;;11.99;100.00
43119;BME280;28729;49.838;8.650;2024-02-16T03:27:31;99491.28;;;11.99;100.00
43119;BME280;28729;49.838;8.650;2024-02-16T03:31:33;99494.81;;;11.94;100.00
43119;BME280;28729;49.838;8.650;2024-02-16T03:35:36;99502.84;;;11.96;100.00
43119;BME280;28729;49.838;8.650;2024-02-16T03:39:38;99504.22;;;11.93;100.00
43119;BME280;28729;49.838;8.650;2024-02-16T03:43:40;99502.81;;;11.91;100.00
43119;BME280;28729;49.838;8.650;2024-02-16T03:47:43;99511.34;;;11.89;100.00
43119;BME280;28729;49.838;8.650;2024-02-16T03:51:45;99512.69;;;11.86;100.00
43119;BME280;28729;49.838;8.650;2024-02-16T03:55:47;99516.31;;;11.87;100.00
43119;BME280;28729;49.838;8.650;2024-02-16T03:59:49;99519.09;;;11.87;100.00
43119;BME280;28729;49.838;8.650;2024-02-16T04:03:51;99527.09;;;11.89;100.00
43119;BME280;28729;49.838;8.650;2024-02-16T04:07:54;99523.22;;;11.90;100.00
43119;BME280;28729;49.838;8.650;2024-02-16T04:11:56;99518.56;;;11.90;100.00
43119;BME280;28729;49.838;8.650;2024-02-16T04:15:58;99522.97;;;11.91;100.00
43119;BME280;28729;49.838;8.650;2024-02-16T04:20:00;99530.13;;;11.92;100.00
43119;BME280;28729;49.838;8.650;2024-02-16T04:24:02;99527.13;;;11.94;100.00
43119;BME280;28729;49.838;8.650;2024-02-16T04:28:05;99529.59;;;11.95;100.00
43119;BME280;28729;49.838;8.650;2024-02-16T04:32:08;99532.13;;;11.97;100.00
43119;BME280;28729;49.838;8.650;2024-02-16T04:36:10;99528.25;;;11.98;100.00
43119;BME280;28729;49.838;8.650;2024-02-16T04:40:12;99522.44;;;11.94;100.00
43119;BME280;28729;49.838;8.650;2024-02-16T04:44:14;99525.09;;;11.84;100.00
43119;BME280;28729;49.838;8.650;2024-02-16T04:48:16;99517.03;;;11.77;100.00
43119;BME280;28729;49.838;8.650;2024-02-16T04:52:17;99510.91;;;11.70;100.00
43119;BME280;28729;49.838;8.650;2024-02-16T04:56:19;99513.38;;;11.67;100.00
43119;BME280;28729;49.838;8.650;2024-02-16T05:00:22;99513.09;;;11.68;100.00
43119;BME280;28729;49.838;8.650;2024-02-16T05:04:24;99512.56;;;11.71;100.00
43119;BME280;28729;49.838;8.650;2024-02-16T05:08:26;99511.22;;;11.74;100.00
43119;BME280;28729;49.838;8.650;2024-02-16T05:12:27;99508.50;;;11.79;100.00
43119;BME280;28729;49.838;8.650;2024-02-16T05:16:29;99514.38;;;11.88;100.00
43119;BME280;28729;49.838;8.650;2024-02-16T05:20:31;99511.09;;;11.91;100.00
43119;BME280;28729;49.838;8.650;2024-02-16T05:24:32;99513.03;;;11.95;100.00
43119;BME280;28729;49.838;8.650;2024-02-16T05:28:35;99526.06;;;12.00;100.00
43119;BME280;28729;49.838;8.650;2024-02-16T05:32:37;99517.50;;;12.01;100.00
43119;BME280;28729;49.838;8.650;2024-02-16T05:36:39;99529.66;;;12.00;100.00
43119;BME280;28729;49.838;8.650;2024-02-16T05:40:41;99528.00;;;12.04;100.00
43119;BME280;28729;49.838;8.650;2024-02-16T05:44:55;99535.22;;;12.05;100.00
43119;BME280;28729;49.838;8.650;2024-02-16T05:48:57;99532.47;;;12.05;100.00
43119;BME280;28729;49.838;8.650;2024-02-16T05:52:59;99541.28;;;12.07;100.00
43119;BME280;28729;49.838;8.650;2024-02-16T05:57:00;99542.69;;;12.10;100.00
43119;BME280;28729;49.838;8.650;2024-02-16T06:01:02;99547.91;;;12.06;100.00
43119;BME280;28729;49.838;8.650;2024-02-16T06:05:05;99538.22;;;12.04;100.00
43119;BME280;28729;49.838;8.650;2024-02-16T06:09:07;99550.09;;;11.99;100.00
43119;BME280;28729;49.838;8.650;2024-02-16T06:13:09;99544.22;;;11.91;100.00
43119;BME280;28729;49.838;8.650;2024-02-16T06:17:11;99558.47;;;11.82;100.00
43119;BME280;28729;49.838;8.650;2024-02-16T06:21:18;99555.38;;;11.74;100.00
43119;BME280;28729;49.838;8.650;2024-02-16T06:25:20;99552.03;;;11.67;100.00
43119;BME280;28729;49.838;8.650;2024-02-16T06:29:22;99552.22;;;11.60;100.00
43119;BME280;28729;49.838;8.650;2024-02-16T06:33:24;99557.72;;;11.55;100.00
43119;BME280;28729;49.838;8.650;2024-02-16T06:37:26;99569.81;;;11.54;100.00
43119;BME280;28729;49.838;8.650;2024-02-16T06:41:28;99565.94;;;11.50;100.00
43119;BME280;28729;49.838;8.650;2024-02-16T06:45:29;99557.94;;;11.48;100.00
43119;BME280;28729;49.838;8.650;2024-02-16T06:49:31;99572.50;;;11.44;100.00
43119;BME280;28729;49.838;8.650;2024-02-16T06:53:34;99581.59;;;11.44;100.00
43119;BME280;28729;49.838;8.650;2024-02-16T06:57:36;99580.53;;;11.45;100.00
43119;BME280;28729;49.838;8.650;2024-02-16T07:01:38;99582.78;;;11.48;100.00
43119;BME280;28729;49.838;8.650;2024-02-16T07:05:40;99582.53;;;11.55;100.00
43119;BME280;28729;49.838;8.650;2024-02-16T07:09:42;99585.09;;;11.61;100.00
43119;BME280;28729;49.838;8.650;2024-02-16T07:13:44;99586.53;;;11.69;100.00
43119;BME280;28729;49.838;8.650;2024-02-16T07:17:46;99584.38;;;11.76;100.00
43119;BME280;28729;49.838;8.650;2024-02-16T07:21:48;99592.72;;;11.81;100.00
43119;BME280;28729;49.838;8.650;2024-02-16T07:25:50;99607.16;;;11.89;100.00
43119;BME280;28729;49.838;8.650;2024-02-16T07:29:52;99609.75;;;12.00;100.00
43119;BME280;28729;49.838;8.650;2024-02-16T07:33:54;99607.84;;;12.06;100.00
43119;BME280;28729;49.838;8.650;2024-02-16T07:37:56;99608.44;;;12.13;100.00
43119;BME280;28729;49.838;8.650;2024-02-16T07:41:58;99613.22;;;12.23;100.00
43119;BME280;28729;49.838;8.650;2024-02-16T07:45:59;99614.69;;;12.36;100.00
43119;BME280;28729;49.838;8.650;2024-02-16T07:50:01;99628.88;;;12.49;100.00
43119;BME280;28729;49.838;8.650;2024-02-16T07:54:06;99637.25;;;12.65;100.00
43119;BME280;28729;49.838;8.650;2024-02-16T07:58:08;99643.16;;;12.84;99.66
43119;BME280;28729;49.838;8.650;2024-02-16T08:02:10;99632.44;;;13.03;97.38
43119;BME280;28729;49.838;8.650;2024-02-16T08:06:17;99629.81;;;13.28;94.99
43119;BME280;28729;49.838;8.650;2024-02-16T08:10:22;99636.53;;;13.58;93.28
43119;BME280;28729;49.838;8.650;2024-02-16T08:14:24;99631.88;;;13.84;90.08
43119;BME280;28729;49.838;8.650;2024-02-16T08:18:25;99623.84;;;14.08;88.04
43119;BME280;28729;49.838;8.650;2024-02-16T08:22:28;99619.66;;;14.21;84.50
43119;BME280;28729;49.838;8.650;2024-02-16T08:26:30;99617.44;;;14.33;85.19
43119;BME280;28729;49.838;8.650;2024-02-16T08:30:31;99627.69;;;14.43;84.55
43119;BME280;28729;49.838;8.650;2024-02-16T08:34:35;99635.72;;;14.49;83.18
43119;BME280;28729;49.838;8.650;2024-02-16T08:38:39;99634.06;;;14.53;81.48
43119;BME280;28729;49.838;8.650;2024-02-16T08:42:41;99634.88;;;14.64;80.38
43119;BME280;28729;49.838;8.650;2024-02-16T08:46:44;99649.22;;;14.87;80.59
43119;BME280;28729;49.838;8.650;2024-02-16T08:50:47;99637.81;;;15.03;79.91
43119;BME280;28729;49.838;8.650;2024-02-16T08:54:49;99640.00;;;15.07;77.93
43119;BME280;28729;49.838;8.650;2024-02-16T08:58:51;99641.63;;;15.13;77.40
43119;BME280;28729;49.838;8.650;2024-02-16T09:02:53;99641.13;;;15.06;75.89
43119;BME280;28729;49.838;8.650;2024-02-16T09:06:55;99648.63;;;15.05;75.68
43119;BME280;28729;49.838;8.650;2024-02-16T09:10:57;99654.72;;;15.02;75.19
43119;BME280;28729;49.838;8.650;2024-02-16T09:14:59;99643.91;;;15.06;75.67
43119;BME280;28729;49.838;8.650;2024-02-16T09:19:01;99655.78;;;15.16;74.96
43119;BME280;28729;49.838;8.650;2024-02-16T09:23:03;99650.47;;;15.25;73.92
43119;BME280;28729;49.838;8.650;2024-02-16T09:27:05;99654.06;;;15.31;72.99
43119;BME280;28729;49.838;8.650;2024-02-16T09:31:07;99665.13;;;15.41;72.77
43119;BME280;28729;49.838;8.650;2024-02-16T09:35:09;99675.34;;;15.50;72.25
43119;BME280;28729;49.838;8.650;2024-02-16T09:39:11;99681.41;;;15.58;72.11
43119;BME280;28729;49.838;8.650;2024-02-16T09:43:27;99678.31;;;15.69;71.75
43119;BME280;28729;49.838;8.650;2024-02-16T09:47:30;99684.09;;;15.78;71.46
43119;BME280;28729;49.838;8.650;2024-02-16T09:51:36;99691.84;;;15.81;69.39
43119;BME280;28729;49.838;8.650;2024-02-16T09:55:39;99697.88;;;15.93;70.37
43119;BME280;28729;49.838;8.650;2024-02-16T09:59:40;99705.97;;;15.90;69.69
43119;BME280;28729;49.838;8.650;2024-02-16T10:03:43;99704.25;;;15.94;69.74
43119;BME280;28729;49.838;8.650;2024-02-16T10:07:45;99715.69;;;15.92;69.42
43119;BME280;28729;49.838;8.650;2024-02-16T10:11:47;99718.34;;;16.08;69.65
43119;BME280;28729;49.838;8.650;2024-02-16T10:15:49;99727.81;;;16.07;68.74
43119;BME280;28729;49.838;8.650;2024-02-16T10:19:58;99733.84;;;16.19;68.42
43119;BME280;28729;49.838;8.650;2024-02-16T10:24:08;99738.63;;;16.48;68.79
43119;BME280;28729;49.838;8.650;2024-02-16T10:28:11;99732.38;;;16.66;67.08
43119;BME280;28729;49.838;8.650;2024-02-16T10:32:16;99738.78;;;16.96;66.83
43119;BME280;28729;49.838;8.650;2024-02-16T10:36:18;99740.50;;;17.16;66.38
43119;BME280;28729;49.838;8.650;2024-02-16T10:40:20;99746.75;;;17.07;65.38
43119;BME280;28729;49.838;8.650;2024-02-16T10:44:26;99748.63;;;17.12;64.81
43119;BME280;28729;49.838;8.650;2024-02-16T10:48:30;99753.97;;;17.08;64.16
43119;BME280;28729;49.838;8.650;2024-02-16T10:52:32;99755.56;;;17.15;65.20
43119;BME280;28729;49.838;8.650;2024-02-16T10:56:37;99747.84;;;17.06;64.49
43119;BME280;28729;49.838;8.650;2024-02-16T11:00:50;99751.66;;;17.16;64.85
43119;BME280;28729;49.838;8.650;2024-02-16T11:04:52;99743.88;;;17.13;64.61
43119;BME280;28729;49.838;8.650;2024-02-16T11:09:01;99746.97;;;17.11;64.95
43119;BME280;28729;49.838;8.650;2024-02-16T11:13:03;99742.38;;;17.25;65.07
43119;BME280;28729;49.838;8.650;2024-02-16T11:17:09;99741.38;;;17.40;65.20
43119;BME280;28729;49.838;8.650;2024-02-16T11:21:14;99745.75;;;17.46;65.05
43119;BME280;28729;49.838;8.650;2024-02-16T11:25:16;99736.91;;;17.39;64.97
43119;BME280;28729;49.838;8.650;2024-02-16T11:29:18;99755.94;;;17.32;65.98
43119;BME280;28729;49.838;8.650;2024-02-16T11:33:20;99751.47;;;17.31;66.10
43119;BME280;28729;49.838;8.650;2024-02-16T11:37:22;99755.38;;;17.30;66.78
43119;BME280;28729;49.838;8.650;2024-02-16T11:41:23;99750.59;;;17.36;66.89
43119;BME280;28729;49.838;8.650;2024-02-16T11:45:26;99753.69;;;17.34;67.38
43119;BME280;28729;49.838;8.650;2024-02-16T11:49:28;99750.41;;;17.27;66.99
43119;BME280;28729;49.838;8.650;2024-02-16T11:53:31;99756.28;;;17.25;67.27
43119;BME280;28729;49.838;8.650;2024-02-16T11:57:33;99758.72;;;17.32;68.05
43119;BME280;28729;49.838;8.650;2024-02-16T12:01:35;99746.50;;;17.28;68.29
43119;BME280;28729;49.838;8.650;2024-02-16T12:05:38;99747.63;;;17.27;68.27
43119;BME280;28729;49.838;8.650;2024-02-16T12:09:41;99752.84;;;17.34;68.77
43119;BME280;28729;49.838;8.650;2024-02-16T12:13:44;99742.81;;;17.57;68.18
43119;BME280;28729;49.838;8.650;2024-02-16T12:17:46;99750.97;;;17.96;67.95
43119;BME280;28729;49.838;8.650;2024-02-16T12:21:49;99747.88;;;18.16;65.66
43119;BME280;28729;49.838;8.650;2024-02-16T12:25:52;99751.41;;;18.41;64.66
43119;BME280;28729;49.838;8.650;2024-02-16T12:29:54;99751.44;;;18.74;64.02
43119;BME280;28729;49.838;8.650;2024-02-16T12:33:56;99753.53;;;18.82;62.58
43119;BME280;28729;49.838;8.650;2024-02-16T12:37:58;99738.19;;;19.12;61.90
43119;BME280;28729;49.838;8.650;2024-02-16T12:42:00;99746.91;;;19.38;60.15
43119;BME280;28729;49.838;8.650;2024-02-16T12:46:02;99738.19;;;19.95;57.99
43119;BME280;28729;49.838;8.650;2024-02-16T12:50:05;99744.44;;;20.51;57.82
43119;BME280;28729;49.838;8.650;2024-02-16T12:54:07;99740.81;;;20.95;55.65
43119;BME280;28729;49.838;8.650;2024-02-16T12:58:15;99742.00;;;21.34;54.39
43119;BME280;28729;49.838;8.650;2024-02-16T13:02:17;99743.84;;;21.07;53.65
43119;BME280;28729;49.838;8.650;2024-02-16T13:06:19;99738.94;;;20.45;54.93
43119;BME280;28729;49.838;8.650;2024-02-16T13:10:27;99732.66;;;19.67;55.77
43119;BME280;28729;49.838;8.650;2024-02-16T13:14:28;99737.19;;;19.49;57.38
43119;BME280;28729;49.838;8.650;2024-02-16T13:18:31;99730.56;;;19.31;58.31
43119;BME280;28729;49.838;8.650;2024-02-16T13:22:33;99731.91;;;19.20;58.43
43119;BME280;28729;49.838;8.650;2024-02-16T13:26:35;99730.13;;;19.10;58.76
43119;BME280;28729;49.838;8.650;2024-02-16T13:30:37;99731.97;;;19.01;59.99
43119;BME280;28729;49.838;8.650;2024-02-16T13:34:39;99736.50;;;18.97;60.45
43119;BME280;28729;49.838;8.650;2024-02-16T13:38:41;99738.97;;;18.85;60.51
43119;BME280;28729;49.838;8.650;2024-02-16T13:42:44;99732.69;;;18.60;61.97
43119;BME280;28729;49.838;8.650;2024-02-16T13:46:50;99740.28;;;18.55;62.43
43119;BME280;28729;49.838;8.650;2024-02-16T13:50:54;99744.84;;;18.51;63.50
43119;BME280;28729;49.838;8.650;2024-02-16T13:54:58;99748.38;;;18.56;63.77
43119;BME280;28729;49.838;8.650;2024-02-16T13:59:00;99749.59;;;18.50;63.61
43119;BME280;28729;49.838;8.650;2024-02-16T14:03:04;99751.31;;;18.46;63.64
43119;BME280;28729;49.838;8.650;2024-02-16T14:07:06;99751.31;;;18.46;63.77
43119;BME280;28729;49.838;8.650;2024-02-16T14:11:08;99754.09;;;18.46;63.89
43119;BME280;28729;49.838;8.650;2024-02-16T14:15:10;99760.84;;;18.45;63.81
43119;BME280;28729;49.838;8.650;2024-02-16T14:19:17;99763.53;;;18.31;64.33
43119;BME280;28729;49.838;8.650;2024-02-16T14:23:19;99777.34;;;18.04;65.18
43119;BME280;28729;49.838;8.650;2024-02-16T14:27:22;99774.78;;;17.88;66.10
43119;BME280;28729;49.838;8.650;2024-02-16T14:31:24;99785.31;;;17.67;67.28
43119;BME280;28729;49.838;8.650;2024-02-16T14:35:26;99795.38;;;17.63;67.55
43119;BME280;28729;49.838;8.650;2024-02-16T14:39:28;99798.53;;;17.57;68.02
43119;BME280;28729;49.838;8.650;2024-02-16T14:43:34;99805.06;;;17.47;68.99
43119;BME280;28729;49.838;8.650;2024-02-16T14:47:36;99809.56;;;17.43;68.83
43119;BME280;28729;49.838;8.650;2024-02-16T14:51:41;99810.25;;;17.29;69.63
43119;BME280;28729;49.838;8.650;2024-02-16T14:55:44;99810.66;;;17.18;70.38
43119;BME280;28729;49.838;8.650;2024-02-16T14:59:46;99816.06;;;17.04;71.46
43119;BME280;28729;49.838;8.650;2024-02-16T15:03:47;99827.00;;;16.95;72.38
43119;BME280;28729;49.838;8.650;2024-02-16T15:07:49;99834.84;;;16.93;73.00
43119;BME280;28729;49.838;8.650;2024-02-16T15:11:52;99841.28;;;16.83;73.79
43119;BME280;28729;49.838;8.650;2024-02-16T15:15:54;99847.50;;;16.70;74.62
43119;BME280;28729;49.838;8.650;2024-02-16T15:19:56;99845.09;;;16.58;75.48
43119;BME280;28729;49.838;8.650;2024-02-16T15:23:58;99845.97;;;16.54;75.79
43119;BME280;28729;49.838;8.650;2024-02-16T15:28:00;99860.72;;;16.49;76.71
43119;BME280;28729;49.838;8.650;2024-02-16T15:32:02;99858.59;;;16.36;77.84
43119;BME280;28729;49.838;8.650;2024-02-16T15:36:04;99861.19;;;16.12;81.75
43119;BME280;28729;49.838;8.650;2024-02-16T15:40:07;99869.59;;;16.07;83.00
43119;BME280;28729;49.838;8.650;2024-02-16T15:44:09;99889.06;;;15.97;84.87
43119;BME280;28729;49.838;8.650;2024-02-16T15:48:13;99878.56;;;15.78;87.49
43119;BME280;28729;49.838;8.650;2024-02-16T15:52:17;99883.88;;;15.54;91.60
43119;BME280;28729;49.838;8.650;2024-02-16T15:56:19;99895.31;;;15.32;94.75
43119;BME280;28729;49.838;8.650;2024-02-16T16:00:21;99893.66;;;15.06;100.00
43119;BME280;28729;49.838;8.650;2024-02-16T16:04:23;99893.63;;;14.95;100.00
43119;BME280;28729;49.838;8.650;2024-02-16T16:08:25;99896.41;;;14.85;100.00
43119;BME280;28729;49.838;8.650;2024-02-16T16:12:26;99891.97;;;14.79;100.00
43119;BME280;28729;49.838;8.650;2024-02-16T16:16:28;99901.41;;;14.73;100.00
43119;BME280;28729;49.838;8.650;2024-02-16T16:20:30;99905.81;;;14.69;100.00
43119;BME280;28729;49.838;8.650;2024-02-16T16:24:32;99913.31;;;14.58;100.00
43119;BME280;28729;49.838;8.650;2024-02-16T16:28:34;99922.44;;;14.53;100.00
43119;BME280;28729;49.838;8.650;2024-02-16T16:32:36;99921.25;;;14.39;100.00
43119;BME280;28729;49.838;8.650;2024-02-16T16:36:37;99923.44;;;14.32;100.00
43119;BME280;28729;49.838;8.650;2024-02-16T16:40:41;99938.66;;;14.24;100.00
43119;BME280;28729;49.838;8.650;2024-02-16T16:44:43;99937.50;;;14.15;100.00
43119;BME280;28729;49.838;8.650;2024-02-16T16:48:45;99940.28;;;14.10;100.00
43119;BME280;28729;49.838;8.650;2024-02-16T16:52:47;99944.63;;;14.01;100.00
43119;BME280;28729;49.838;8.650;2024-02-16T16:56:49;99950.72;;;13.98;100.00
43119;BME280;28729;49.838;8.650;2024-02-16T17:00:51;99957.91;;;13.94;100.00
43119;BME280;28729;49.838;8.650;2024-02-16T17:04:53;99963.72;;;13.92;100.00
43119;BME280;28729;49.838;8.650;2024-02-16T17:08:56;99974.25;;;13.90;100.00
43119;BME280;28729;49.838;8.650;2024-02-16T17:12:58;99971.47;;;13.90;100.00
43119;BME280;28729;49.838;8.650;2024-02-16T17:17:00;99978.09;;;13.89;100.00
43119;BME280;28729;49.838;8.650;2024-02-16T17:21:04;99990.84;;;13.90;100.00
43119;BME280;28729;49.838;8.650;2024-02-16T17:25:07;99981.69;;;13.84;100.00
43119;BME280;28729;49.838;8.650;2024-02-16T17:29:10;99996.31;;;13.80;100.00
43119;BME280;28729;49.838;8.650;2024-02-16T17:33:12;99990.75;;;13.75;100.00
43119;BME280;28729;49.838;8.650;2024-02-16T17:37:14;100001.25;;;13.73;100.00
43119;BME280;28729;49.838;8.650;2024-02-16T17:41:21;100007.38;;;13.75;100.00
43119;BME280;28729;49.838;8.650;2024-02-16T17:45:23;100008.47;;;13.74;100.00
43119;BME280;28729;49.838;8.650;2024-02-16T17:49:24;100012.63;;;13.76;100.00
43119;BME280;28729;49.838;8.650;2024-02-16T17:53:29;100027.59;;;13.75;100.00
43119;BME280;28729;49.838;8.650;2024-02-16T17:57:31;100029.53;;;13.75;100.00
43119;BME280;28729;49.838;8.650;2024-02-16T18:01:32;100033.97;;;13.76;100.00
43119;BME280;28729;49.838;8.650;2024-02-16T18:05:35;100042.22;;;13.71;100.00
43119;BME280;28729;49.838;8.650;2024-02-16T18:09:36;100036.69;;;13.71;100.00
43119;BME280;28729;49.838;8.650;2024-02-16T18:13:38;100041.66;;;13.68;100.00
43119;BME280;28729;49.838;8.650;2024-02-16T18:17:40;100050.50;;;13.65;100.00
43119;BME280;28729;49.838;8.650;2024-02-16T18:21:42;100061.25;;;13.62;100.00
43119;BME280;28729;49.838;8.650;2024-02-16T18:25:44;100064.00;;;13.57;100.00
43119;BME280;28729;49.838;8.650;2024-02-16T18:29:48;100069.72;;;13.50;100.00
43119;BME280;28729;49.838;8.650;2024-02-16T18:33:50;100074.13;;;13.46;100.00
43119;BME280;28729;49.838;8.650;2024-02-16T18:37:52;100068.59;;;13.46;100.00
43119;BME280;28729;49.838;8.650;2024-02-16T18:41:54;100083.25;;;13.41;100.00
43119;BME280;28729;49.838;8.650;2024-02-16T18:45:55;100076.53;;;13.37;100.00
43119;BME280;28729;49.838;8.650;2024-02-16T18:49:58;100085.13;;;13.36;100.00
43119;BME280;28729;49.838;8.650;2024-02-16T18:54:00;100080.97;;;13.38;100.00
43119;BME280;28729;49.838;8.650;2024-02-16T18:58:03;100088.13;;;13.34;100.00
43119;BME280;28729;49.838;8.650;2024-02-16T19:02:05;100092.25;;;13.32;100.00
43119;BME280;28729;49.838;8.650;2024-02-16T19:06:07;100098.06;;;13.30;100.00
43119;BME280;28729;49.838;8.650;2024-02-16T19:10:09;100099.72;;;13.31;100.00
43119;BME280;28729;49.838;8.650;2024-02-16T19:14:12;100099.16;;;13.29;100.00
43119;BME280;28729;49.838;8.650;2024-02-16T19:18:14;100104.97;;;13.28;100.00
43119;BME280;28729;49.838;8.650;2024-02-16T19:22:16;100114.00;;;13.23;100.00
43119;BME280;28729;49.838;8.650;2024-02-16T19:26:18;100115.09;;;13.22;100.00
43119;BME280;28729;49.838;8.650;2024-02-16T19:30:20;100112.84;;;13.19;100.00
43119;BME280;28729;49.838;8.650;2024-02-16T19:34:26;100118.13;;;13.20;100.00
43119;BME280;28729;49.838;8.650;2024-02-16T19:38:28;100130.56;;;13.18;100.00
43119;BME280;28729;49.838;8.650;2024-02-16T19:42:29;100126.84;;;13.07;100.00
43119;BME280;28729;49.838;8.650;2024-02-16T19:46:32;100139.91;;;13.12;100.00
43119;BME280;28729;49.838;8.650;2024-02-16T19:50:34;100138.72;;;13.08;100.00
43119;BME280;28729;49.838;8.650;2024-02-16T19:54:36;100139.53;;;13.03;100.00
43119;BME280;28729;49.838;8.650;2024-02-16T19:58:38;100146.19;;;13.07;100.00
43119;BME280;28729;49.838;8.650;2024-02-16T20:02:40;100153.38;;;13.08;100.00
43119;BME280;28729;49.838;8.650;2024-02-16T20:06:42;100158.69;;;13.10;100.00
43119;BME280;28729;49.838;8.650;2024-02-16T20:10:44;100168.09;;;13.09;100.00
43119;BME280;28729;49.838;8.650;2024-02-16T20:14:46;100165.81;;;13.06;100.00
43119;BME280;28729;49.838;8.650;2024-02-16T20:18:49;100167.69;;;13.00;100.00
43119;BME280;28729;49.838;8.650;2024-02-16T20:22:52;100176.00;;;13.00;100.00
43119;BME280;28729;49.838;8.650;2024-02-16T20:26:54;100185.38;;;12.99;100.00
43119;BME280;28729;49.838;8.650;2024-02-16T20:30:56;100185.38;;;12.99;100.00
43119;BME280;28729;49.838;8.650;2024-02-16T20:35:05;100190.06;;;12.98;100.00
43119;BME280;28729;49.838;8.650;2024-02-16T20:39:07;100187.06;;;13.00;100.00
43119;BME280;28729;49.838;8.650;2024-02-16T20:43:11;100195.91;;;13.02;100.00
43119;BME280;28729;49.838;8.650;2024-02-16T20:47:13;100195.59;;;12.98;100.00
43119;BME280;28729;49.838;8.650;2024-02-16T20:51:16;100195.81;;;12.92;100.00
43119;BME280;28729;49.838;8.650;2024-02-16T20:55:18;100211.88;;;12.95;100.00
43119;BME280;28729;49.838;8.650;2024-02-16T20:59:20;100215.75;;;12.94;100.00
43119;BME280;28729;49.838;8.650;2024-02-16T21:03:21;100217.34;;;12.90;100.00
43119;BME280;28729;49.838;8.650;2024-02-16T21:07:23;100221.75;;;12.91;100.00
43119;BME280;28729;49.838;8.650;2024-02-16T21:11:27;100225.63;;;12.90;100.00